Weather reports worldwide

Advertisment
Fair Isle, United Kingdom (3008): temperature: 20.05.2019 19:00:00 - 26.05.2019 19:00:00 (BST)Fair Isle, United Kingdom (3008): temperature -20cm & temperature -100cm: 20.05.2019 19:00:00 - 26.05.2019 19:00:00 (BST)Fair Isle, United Kingdom (3008): wind speed & gusts: 20.05.2019 19:00:00 - 26.05.2019 19:00:00 (BST)Fair Isle, United Kingdom (3008): wind direction: 20.05.2019 19:00:00 - 26.05.2019 19:00:00 (BST)Fair Isle, United Kingdom (3008): reduced air pressure: 20.05.2019 19:00:00 - 26.05.2019 19:00:00 (BST)Fair Isle, United Kingdom (3008): visibility: 20.05.2019 19:00:00 - 26.05.2019 19:00:00 (BST)Fair Isle, United Kingdom (3008): precipitation: 20.05.2019 19:00:00 - 26.05.2019 19:00:00 (BST)
Date & Time tt [°C] tt -20cm [°C] tt -100cm [°C] ff [km/h] ff [kn] fx [km/h] fx [kn] dd ppp [hPa] vv [km] rr [mm]
26.05.2019 19:00:00 7,8 - - 16 9 - - ENE 1004,1 25 -
26.05.2019 18:00:00 8,3 - - 15 8 - - NE 1004,4 50 0,0
26.05.2019 17:00:00 8,5 - - 15 8 - - NE 1004,5 45 0,0
26.05.2019 16:00:00 8,5 - - 16 9 - - ENE 1004,7 30 0,0
26.05.2019 15:00:00 8,3 - - 13 7 - - ENE 1005,1 45 0,0
26.05.2019 14:00:00 8,9 - - 13 7 - - ENE 1005,3 50 0,0
26.05.2019 13:00:00 8,9 - - 13 7 - - E 1005,8 30 0,0
26.05.2019 12:00:00 8,5 - - 11 6 - - E 1006,1 35 0,0
26.05.2019 11:00:00 8,7 - - 15 8 - - ENE 1006,4 45 0,0
26.05.2019 10:00:00 8,8 - - 18 10 - - ENE 1006,5 45 0,0
26.05.2019 09:00:00 8,1 - - 15 8 - - NNE 1007,1 45 0,0
26.05.2019 08:00:00 7,4 - - 11 6 - - NNE 1008,1 50 0,0
26.05.2019 07:00:00 7,0 - - 16 9 - - NNE 1007,8 45 0,0
26.05.2019 06:00:00 6,6 - - 15 8 - - N 1008,2 50 0,0
26.05.2019 05:00:00 6,0 - - 15 8 - - N 1008,7 40 0,0
26.05.2019 04:00:00 6,1 - - - - - - - 1009,4 50 0,0
26.05.2019 03:00:00 6,7 - - - - - - - 1009,8 45 0,0
26.05.2019 02:00:00 6,2 - - - - - - - 1010,4 40 0,0
26.05.2019 01:00:00 6,8 - - 15 8 - - N 1010,7 50 0,0
26.05.2019 00:00:00 7,1 - - 15 8 - - NNW 1011,6 50 0,0
25.05.2019 23:00:00 7,2 - - 16 9 - - NNW 1011,7 50 0,0
25.05.2019 22:00:00 7,3 - - 13 7 - - NNW 1011,7 45 0,0
25.05.2019 21:00:00 7,2 - - 15 8 - - NNW 1011,8 45 0,0
25.05.2019 20:00:00 7,7 - - 15 8 - - NNW 1011,9 40 0,0
25.05.2019 19:00:00 8,1 - - 21 11 - - NNW 1012,1 30 0,0
25.05.2019 18:00:00 8,5 - - 16 9 - - NW 1012,2 35 0,0
25.05.2019 17:00:00 8,5 - - 15 8 - - NW 1012,7 40 0,0
25.05.2019 16:00:00 9,1 - - 15 8 - - NW 1012,8 30 0,0
25.05.2019 15:00:00 8,6 - - 16 9 - - WNW 1013,2 45 0,0
25.05.2019 14:00:00 8,6 - - 13 7 - - NW 1013,3 45 0,0
25.05.2019 13:00:00 8,9 - - 16 9 - - NW 1013,4 35 0,0
25.05.2019 12:00:00 9,2 - - 16 9 - - NW 1013,5 40 0,0
25.05.2019 11:00:00 8,6 - - 21 11 - - WNW 1013,8 30 0,0
25.05.2019 10:00:00 8,3 - - 24 13 - - NW 1014,0 30 0,2
25.05.2019 09:00:00 7,5 - - 22 12 - - WNW 1014,0 6 0,0
25.05.2019 08:00:00 8,1 - - 22 12 - - WNW 1013,9 30 0,0
25.05.2019 07:00:00 8,0 - - 24 13 - - WNW 1013,8 15 0,0
25.05.2019 06:00:00 8,2 - - 24 13 - - WNW 1013,8 12 0,0
25.05.2019 05:00:00 8,2 - - 26 14 - - WNW 1013,8 15 0,0
25.05.2019 04:00:00 8,2 - - 28 15 - - WNW 1014,1 16 0,0
25.05.2019 03:00:00 8,2 - - 26 14 - - WNW 1014,0 16 0,0
25.05.2019 02:00:00 8,1 - - 24 13 - - WNW 1014,2 10 0,0
25.05.2019 01:00:00 8,1 - - 22 12 - - WNW 1014,5 14 0,0
25.05.2019 00:00:00 8,1 - - 22 12 - - WNW 1014,8 24 0,0
24.05.2019 23:00:00 8,3 - - 16 9 - - NW 1014,6 15 0,0
24.05.2019 22:00:00 8,8 - - 15 8 - - NW 1014,1 16 0,0
24.05.2019 21:00:00 8,9 - - 16 9 - - NW 1013,7 45 0,0
24.05.2019 20:00:00 9,3 - - 15 8 - - WNW 1013,5 40 0,0
24.05.2019 19:00:00 8,8 - - 16 9 - - WNW 1013,3 25 0,2
24.05.2019 18:00:00 9,0 - - 15 8 - - WNW 1013,3 25 0,0
24.05.2019 17:00:00 9,2 - - 18 10 - - WNW 1013,3 22 0,0
24.05.2019 16:00:00 9,1 - - 15 8 - - W 1013,3 25 0,0
24.05.2019 15:00:00 8,6 - - 18 10 - - WNW 1013,1 21 0,0
24.05.2019 14:00:00 9,0 - - 16 9 - - WNW 1012,7 35 0,0
24.05.2019 13:00:00 9,3 - - 15 8 - - WNW 1012,6 25 0,0
24.05.2019 12:00:00 9,3 - - 18 10 - - WNW 1012,3 35 0,0
24.05.2019 11:00:00 8,8 - - 18 10 - - WNW 1012,1 30 0,0
24.05.2019 10:00:00 8,7 - - 15 8 - - WNW 1011,7 0,3 0,0
24.05.2019 09:00:00 9,1 - - 15 8 - - WNW 1011,0 29 0,0
24.05.2019 08:00:00 9,5 - - 13 7 - - NW 1010,6 30 0,0
24.05.2019 07:00:00 8,9 - - 15 8 - - WNW 1010,3 22 0,0
24.05.2019 06:00:00 8,6 - - 16 9 - - NW 1009,6 28 0,0
24.05.2019 05:00:00 8,1 - - 18 10 - - NW 1009,3 21 0,0
24.05.2019 04:00:00 7,7 - - 16 9 - - NNW 1008,9 24 0,0
24.05.2019 03:00:00 7,6 - - 15 8 - - NNW 1008,4 19 0,0
24.05.2019 02:00:00 7,1 - - 13 7 - - NNW 1007,9 18 0,0
24.05.2019 01:00:00 8,2 - - 9 5 - - NNW 1007,3 19 0,0
24.05.2019 00:00:00 8,5 - - 8 4 - - NNW 1006,8 14 0,0
23.05.2019 23:00:00 8,7 - - 11 6 - - NNW 1006,4 10 0,0
23.05.2019 22:00:00 8,8 - - 13 7 - - NW 1005,9 1,2 0,0
23.05.2019 21:00:00 8,8 - - 15 8 - - NW 1005,4 10 0,0
23.05.2019 20:00:00 8,8 - - 16 9 - - NW 1004,6 6 0,0
23.05.2019 19:00:00 8,9 - - 15 8 - - NW 1004,0 0,3 0,0
23.05.2019 18:00:00 9,0 - - 24 13 - - NW 1003,4 0,4 0,0
23.05.2019 17:00:00 8,8 - - 29 16 - - NW 1002,9 1,9 0,2
23.05.2019 16:00:00 8,8 - - 22 12 - - WNW 1002,6 0,4 0,4
23.05.2019 15:00:00 8,6 - - 26 14 - - WNW 1002,7 2,4 1,2
23.05.2019 14:00:00 8,5 - - 22 12 - - WNW 1002,8 2,1 0,8
23.05.2019 13:00:00 8,4 - - 34 18 46 25 WNW 1002,7 3,2 0,4
23.05.2019 12:00:00 8,4 - - 34 18 50 27 WNW 1003,0 13 0,4
23.05.2019 11:00:00 8,3 - - 31 17 48 26 WNW 1003,1 8 0,0
23.05.2019 10:00:00 8,2 - - 29 16 46 25 WNW 1003,2 8 0,0
23.05.2019 09:00:00 8,2 - - 28 15 - - WNW 1003,5 12 0,0
23.05.2019 08:00:00 8,0 - - 26 14 46 25 WNW 1003,9 22 0,0
23.05.2019 07:00:00 8,0 - - 26 14 - - WNW 1004,2 0,9 0,0
23.05.2019 06:00:00 7,9 - - 24 13 - - WNW 1004,5 8 0,0
23.05.2019 05:00:00 8,1 - - 18 10 - - WNW 1005,2 12 0,0
23.05.2019 04:00:00 8,1 - - 22 12 - - WNW 1005,6 19 0,0
23.05.2019 03:00:00 8,1 - - 26 14 - - NW 1005,9 3,3 0,0
23.05.2019 02:00:00 8,2 - - 26 14 - - WNW 1006,0 8 0,0
23.05.2019 01:00:00 8,1 - - 18 10 - - NW 1006,6 10 0,0
23.05.2019 00:00:00 8,2 - - 21 11 - - NW 1006,7 12 0,2
22.05.2019 23:00:00 8,3 - - 22 12 - - NW 1007,3 4,6 0,0
22.05.2019 22:00:00 8,3 - - 16 9 - - NW 1007,6 0,9 0,0
22.05.2019 21:00:00 8,3 - - 16 9 - - NW 1007,9 7 0,0
22.05.2019 20:00:00 8,2 - - 26 14 - - NNW 1007,8 6 0,0
22.05.2019 19:00:00 8,4 - - 24 13 - - NNW 1008,2 1,0 0,2
22.05.2019 18:00:00 8,5 - - 26 14 - - NNW 1008,4 2,5 0,0
22.05.2019 17:00:00 8,5 - - 21 11 - - NNW 1008,8 3,3 0,0
22.05.2019 16:00:00 8,6 - - 22 12 - - NNW 1008,9 0,7 0,0
22.05.2019 15:00:00 8,7 - - 21 11 - - NNW 1009,4 1,9 0,0
22.05.2019 14:00:00 8,7 - - 18 10 - - NNW 1009,7 2,4 0,0
22.05.2019 13:00:00 8,9 - - 24 13 - - NNW 1009,9 0,7 0,0
22.05.2019 12:00:00 8,9 - - 18 10 - - NNW 1010,2 3,2 0,2
22.05.2019 11:00:00 9,0 - - 22 12 - - NNW 1010,3 5 0,0
22.05.2019 10:00:00 9,2 - - 26 14 - - NNW 1010,4 6 0,0
22.05.2019 09:00:00 8,9 - - 18 10 - - NNW 1010,9 9 0,0
22.05.2019 08:00:00 8,7 - - 16 9 - - NW 1011,2 10 0,0
22.05.2019 07:00:00 8,6 - - 22 12 - - NW 1011,3 5 0,0
22.05.2019 06:00:00 8,4 - - 15 8 - - NW 1012,0 14 0,2
22.05.2019 05:00:00 8,4 - - 18 10 - - NW 1012,4 10 0,0
22.05.2019 04:00:00 8,4 - - 22 12 - - NW 1012,6 9 1,8
22.05.2019 03:00:00 8,4 - - 22 12 - - NW 1013,1 26 0,0
22.05.2019 02:00:00 8,5 - - 16 9 - - NW 1013,9 18 0,4
22.05.2019 01:00:00 8,8 - - 16 9 - - NW 1014,3 17 0,0
22.05.2019 00:00:00 8,8 - - 18 10 - - WNW 1014,6 29 0,0
21.05.2019 23:00:00 8,8 - - 13 7 - - NW 1014,9 16 0,0
21.05.2019 22:00:00 8,8 - - 16 9 - - NNW 1015,3 12 0,0
21.05.2019 21:00:00 9,0 - - 15 8 - - WNW 1015,6 15 0,0
21.05.2019 20:00:00 9,1 - - 15 8 - - NW 1015,7 11 0,0
21.05.2019 19:00:00 9,2 - - 15 8 - - NW 1015,9 10 0,0
21.05.2019 18:00:00 9,1 - - 13 7 - - WNW 1015,8 14 0,0
21.05.2019 17:00:00 9,2 - - 13 7 - - WNW 1015,9 13 0,0
21.05.2019 16:00:00 9,5 - - 11 6 - - NW 1016,2 12 0,6
21.05.2019 15:00:00 9,0 - - 13 7 - - WNW 1016,4 13 0,0
21.05.2019 14:00:00 9,1 - - 11 6 - - NW 1016,3 14 1,6
21.05.2019 13:00:00 8,9 - - 9 5 - - WNW 1016,3 6 2,6
21.05.2019 12:00:00 9,4 - - 9 5 - - NW 1016,2 10 1,2
21.05.2019 11:00:00 10,3 - - 5 3 - - N 1016,5 18 0,0
21.05.2019 10:00:00 10,3 11,0 9,9 5 3 - - NW 1016,2 35 0,0
21.05.2019 09:00:00 9,8 - - 9 5 - - NW 1016,1 29 0,0
21.05.2019 08:00:00 9,4 - - 8 4 - - NW 1016,0 20 0,0
21.05.2019 07:00:00 9,8 - - 8 4 - - NNW 1015,8 30 0,0
21.05.2019 06:00:00 9,4 - - 9 5 - - NNW 1015,8 14 0,0
21.05.2019 05:00:00 9,4 - - - - - - - 1015,7 45 0,0
21.05.2019 04:00:00 9,5 - - - - - - - 1015,6 35 0,0
21.05.2019 03:00:00 9,3 - - 8 4 - - NNW 1015,6 22 0,0
21.05.2019 02:00:00 9,6 - - 5 3 - - NNW 1015,7 23 0,0
21.05.2019 01:00:00 9,4 - - 9 5 - - NNW 1015,8 45 0,0
21.05.2019 00:00:00 9,1 - - 11 6 - - NW 1015,8 45 0,0
20.05.2019 23:00:00 6,8 - - 8 4 - - WNW 1015,5 20 0,0
20.05.2019 22:00:00 9,5 - - 2 1 - - SSE 1015,6 12 0,0
20.05.2019 21:00:00 9,6 - - 4 2 - - E 1015,6 22 0,0
20.05.2019 20:00:00 9,6 - - 9 5 - - ENE 1015,3 23 0,0
20.05.2019 19:00:00 9,7 - - 9 5 - - ENE 1015,1 20 0,0

tt = temperature
tt -20cm = temperature -20cm
tt -100cm = temperature -100cm
ff = wind speed
fx = gusts
dd = wind direction
ppp = reduced air pressure
vv = visibility
rr = precipitation

Next stations